createdAt,value
2022-10-08T00:00:09.097Z,994.65
2022-10-08T00:01:09.147Z,994.63
2022-10-08T00:02:09.134Z,994.68
2022-10-08T00:03:09.091Z,994.67
2022-10-08T00:04:09.115Z,994.67
2022-10-08T00:05:09.062Z,994.69
2022-10-08T00:06:09.056Z,994.68
2022-10-08T00:07:09.042Z,994.63
2022-10-08T00:08:09.037Z,994.61
2022-10-08T00:09:09.055Z,994.60
2022-10-08T00:10:09.072Z,994.67
2022-10-08T00:11:09.011Z,994.66
2022-10-08T00:12:09.011Z,994.65
2022-10-08T00:13:09.000Z,994.70
2022-10-08T00:14:09.003Z,994.68
2022-10-08T00:15:09.007Z,994.67
2022-10-08T00:16:09.046Z,994.68
2022-10-08T00:17:08.983Z,994.66
2022-10-08T00:18:08.978Z,994.71
2022-10-08T00:19:08.987Z,994.63
2022-10-08T00:20:08.957Z,994.66
2022-10-08T00:21:08.959Z,994.61
2022-10-08T00:22:08.949Z,994.68
2022-10-08T00:23:08.932Z,994.66
2022-10-08T00:24:08.961Z,994.73
2022-10-08T00:25:08.929Z,994.73
2022-10-08T00:26:08.930Z,994.77
2022-10-08T00:27:09.062Z,994.70
2022-10-08T00:28:08.990Z,994.69
2022-10-08T00:29:08.918Z,994.71
2022-10-08T00:30:08.894Z,994.71
2022-10-08T00:31:08.935Z,994.66
2022-10-08T00:32:08.958Z,994.61
2022-10-08T00:33:08.888Z,994.62
2022-10-08T00:34:08.869Z,994.61
2022-10-08T00:35:08.867Z,994.61
2022-10-08T00:36:08.850Z,994.68
2022-10-08T00:37:08.925Z,994.64
2022-10-08T00:38:08.862Z,994.68
2022-10-08T00:39:08.855Z,994.72
2022-10-08T00:40:08.829Z,994.72
2022-10-08T00:41:08.826Z,994.73
2022-10-08T00:42:08.897Z,994.72
2022-10-08T00:43:08.805Z,994.72
2022-10-08T00:44:08.806Z,994.72
2022-10-08T00:45:08.798Z,994.69
2022-10-08T00:46:08.879Z,994.71
2022-10-08T00:47:08.804Z,994.69
2022-10-08T00:48:08.786Z,994.67
2022-10-08T00:49:08.789Z,994.63
2022-10-08T00:50:08.750Z,994.68
2022-10-08T00:51:08.758Z,994.64
2022-10-08T00:52:08.749Z,994.68
2022-10-08T00:53:09.734Z,994.62
2022-10-08T00:54:08.742Z,994.61
2022-10-08T00:55:08.726Z,994.59
2022-10-08T00:56:08.726Z,994.61
2022-10-08T00:57:08.727Z,994.60
2022-10-08T00:58:08.709Z,994.59
2022-10-08T00:59:08.700Z,994.60
2022-10-08T01:00:08.710Z,994.64
2022-10-08T01:01:08.889Z,994.65
2022-10-08T01:02:08.813Z,994.65
2022-10-08T01:03:08.677Z,994.66
2022-10-08T01:04:08.666Z,994.60
2022-10-08T01:05:08.678Z,994.65
2022-10-08T01:06:08.649Z,994.57
2022-10-08T01:07:08.645Z,994.65
2022-10-08T01:08:08.642Z,994.62
2022-10-08T01:09:08.621Z,994.62
2022-10-08T01:10:08.643Z,994.62
2022-10-08T01:11:08.631Z,994.63
2022-10-08T01:12:08.611Z,994.58
2022-10-08T01:13:08.606Z,994.60
2022-10-08T01:14:08.604Z,994.57
2022-10-08T01:15:08.611Z,994.57
2022-10-08T01:16:08.616Z,994.55
2022-10-08T01:17:08.595Z,994.49
2022-10-08T01:18:08.566Z,994.49
2022-10-08T01:19:08.562Z,994.53
2022-10-08T01:20:08.570Z,994.53
2022-10-08T01:21:08.552Z,994.52
2022-10-08T01:22:08.545Z,994.54
2022-10-08T01:23:08.543Z,994.51
2022-10-08T01:24:08.540Z,994.53
2022-10-08T01:25:08.537Z,994.52
2022-10-08T01:26:08.522Z,994.60
2022-10-08T01:27:08.517Z,994.56
2022-10-08T01:28:08.560Z,994.61
2022-10-08T01:29:08.501Z,994.53
2022-10-08T01:30:08.493Z,994.55
2022-10-08T01:31:08.602Z,994.59
2022-10-08T01:32:08.498Z,994.54
2022-10-08T01:33:08.473Z,994.61
2022-10-08T01:34:08.607Z,994.57
2022-10-08T01:35:08.650Z,994.58
2022-10-08T01:36:08.511Z,994.57
2022-10-08T01:37:08.434Z,994.57
2022-10-08T01:38:08.441Z,994.62
2022-10-08T01:39:08.431Z,994.63
2022-10-08T01:40:08.443Z,994.63
2022-10-08T01:41:08.424Z,994.58
2022-10-08T01:42:08.417Z,994.59
2022-10-08T01:43:08.436Z,994.59
2022-10-08T01:44:08.407Z,994.60
2022-10-08T01:45:09.260Z,994.54
2022-10-08T01:46:08.459Z,994.57
2022-10-08T01:47:08.402Z,994.55
2022-10-08T01:48:08.395Z,994.58
2022-10-08T01:49:08.383Z,994.59
2022-10-08T01:50:08.399Z,994.57
2022-10-08T01:51:08.380Z,994.56
2022-10-08T01:52:08.372Z,994.58
2022-10-08T01:53:08.359Z,994.56
2022-10-08T01:54:08.370Z,994.53
2022-10-08T01:55:08.346Z,994.59
2022-10-08T01:56:08.342Z,994.59
2022-10-08T01:57:08.355Z,994.55
2022-10-08T01:58:08.368Z,994.49
2022-10-08T01:59:08.339Z,994.50
2022-10-08T02:00:08.319Z,994.55
2022-10-08T02:01:08.367Z,994.50
2022-10-08T02:02:08.344Z,994.44
2022-10-08T02:03:08.291Z,994.52
2022-10-08T02:04:08.331Z,994.47
2022-10-08T02:05:08.262Z,994.49
2022-10-08T02:06:08.291Z,994.48
2022-10-08T02:07:08.271Z,994.51
2022-10-08T02:08:08.262Z,994.46
2022-10-08T02:09:08.238Z,994.46
2022-10-08T02:10:08.259Z,994.47
2022-10-08T02:11:08.262Z,994.48
2022-10-08T02:12:08.258Z,994.48
2022-10-08T02:13:08.223Z,994.51
2022-10-08T02:14:08.207Z,994.51
2022-10-08T02:15:08.193Z,994.45
2022-10-08T02:16:08.228Z,994.52
2022-10-08T02:17:08.190Z,994.40
2022-10-08T02:18:08.175Z,994.53
2022-10-08T02:19:08.174Z,994.51
2022-10-08T02:20:08.174Z,994.52
2022-10-08T02:21:08.167Z,994.52
2022-10-08T02:22:08.160Z,994.54
2022-10-08T02:23:08.159Z,994.59
2022-10-08T02:24:08.127Z,994.57
2022-10-08T02:25:08.127Z,994.59
2022-10-08T02:26:08.123Z,994.56
2022-10-08T02:27:08.117Z,994.55
2022-10-08T02:28:08.245Z,994.53
2022-10-08T02:29:08.107Z,994.48
2022-10-08T02:30:08.097Z,994.49
2022-10-08T02:31:08.098Z,994.55
2022-10-08T02:32:08.160Z,994.52
2022-10-08T02:33:08.106Z,994.47
2022-10-08T02:34:08.073Z,994.49
2022-10-08T02:35:08.064Z,994.47
2022-10-08T02:36:08.058Z,994.49
2022-10-08T02:37:08.048Z,994.48
2022-10-08T02:38:09.060Z,994.47
2022-10-08T02:39:08.055Z,994.55
2022-10-08T02:40:08.043Z,994.48
2022-10-08T02:41:08.048Z,994.47
2022-10-08T02:42:08.035Z,994.46
2022-10-08T02:43:08.042Z,994.46
2022-10-08T02:44:08.035Z,994.48
2022-10-08T02:45:08.027Z,994.43
2022-10-08T02:46:08.042Z,994.44
2022-10-08T02:47:07.979Z,994.41
2022-10-08T02:48:08.010Z,994.48
2022-10-08T02:49:07.963Z,994.41
2022-10-08T02:50:07.962Z,994.39
2022-10-08T02:51:07.964Z,994.47
2022-10-08T02:52:07.951Z,994.46
2022-10-08T02:53:07.978Z,994.44
2022-10-08T02:54:07.956Z,994.50
2022-10-08T02:55:08.710Z,994.44
2022-10-08T02:56:07.951Z,994.43
2022-10-08T02:57:09.677Z,994.42
2022-10-08T02:58:08.910Z,994.44
2022-10-08T02:59:07.899Z,994.48
2022-10-08T03:00:07.935Z,994.52
2022-10-08T03:01:07.973Z,994.52
2022-10-08T03:02:07.935Z,994.44
2022-10-08T03:03:07.878Z,994.46
2022-10-08T03:04:07.879Z,994.49
2022-10-08T03:05:07.906Z,994.46
2022-10-08T03:06:07.879Z,994.52
2022-10-08T03:07:07.847Z,994.51
2022-10-08T03:08:07.862Z,994.55
2022-10-08T03:09:07.875Z,994.52
2022-10-08T03:10:07.830Z,994.54
2022-10-08T03:11:07.861Z,994.55
2022-10-08T03:12:07.835Z,994.59
2022-10-08T03:13:07.846Z,994.56
2022-10-08T03:14:07.827Z,994.59
2022-10-08T03:15:07.838Z,994.62
2022-10-08T03:16:07.833Z,994.59
2022-10-08T03:17:07.781Z,994.53
2022-10-08T03:18:07.775Z,994.59
2022-10-08T03:19:07.762Z,994.62
2022-10-08T03:20:07.762Z,994.62
2022-10-08T03:21:07.762Z,994.61
2022-10-08T03:22:07.766Z,994.61
2022-10-08T03:23:07.738Z,994.63
2022-10-08T03:24:07.735Z,994.62
2022-10-08T03:25:07.730Z,994.63
2022-10-08T03:26:07.739Z,994.65
2022-10-08T03:27:07.714Z,994.59
2022-10-08T03:28:07.746Z,994.62
2022-10-08T03:29:07.698Z,994.61
2022-10-08T03:30:07.695Z,994.62
2022-10-08T03:31:07.747Z,994.55
2022-10-08T03:32:07.678Z,994.55
2022-10-08T03:33:07.670Z,994.60
2022-10-08T03:34:07.672Z,994.62
2022-10-08T03:35:07.649Z,994.65
2022-10-08T03:36:07.646Z,994.63
2022-10-08T03:37:07.654Z,994.60
2022-10-08T03:38:07.623Z,994.65
2022-10-08T03:39:07.621Z,994.62
2022-10-08T03:40:07.613Z,994.65
2022-10-08T03:41:07.610Z,994.68
2022-10-08T03:42:07.622Z,994.62
2022-10-08T03:43:07.598Z,994.60
2022-10-08T03:44:07.597Z,994.64
2022-10-08T03:45:07.586Z,994.59
2022-10-08T03:46:07.627Z,994.63
2022-10-08T03:47:07.562Z,994.64
2022-10-08T03:48:07.574Z,994.61
2022-10-08T03:49:07.554Z,994.58
2022-10-08T03:50:07.542Z,994.58
2022-10-08T03:51:07.534Z,994.62
2022-10-08T03:52:07.530Z,994.61
2022-10-08T03:53:07.543Z,994.64
2022-10-08T03:54:07.522Z,994.60
2022-10-08T03:55:07.515Z,994.59
2022-10-08T03:56:07.516Z,994.58
2022-10-08T03:57:07.496Z,994.60
2022-10-08T03:58:07.499Z,994.55
2022-10-08T03:59:07.494Z,994.61
2022-10-08T04:00:07.478Z,994.60
2022-10-08T04:01:07.494Z,994.65
2022-10-08T04:02:07.566Z,994.63
2022-10-08T04:03:07.569Z,994.65
2022-10-08T04:04:07.461Z,994.71
2022-10-08T04:05:07.444Z,994.65
2022-10-08T04:06:07.470Z,994.68
2022-10-08T04:07:07.434Z,994.65
2022-10-08T04:08:07.439Z,994.65
2022-10-08T04:09:07.430Z,994.72
2022-10-08T04:10:07.405Z,994.67
2022-10-08T04:11:07.405Z,994.70
2022-10-08T04:12:07.395Z,994.67
2022-10-08T04:13:07.394Z,994.70
2022-10-08T04:14:07.386Z,994.71
2022-10-08T04:15:07.385Z,994.76
2022-10-08T04:16:07.506Z,994.70
2022-10-08T04:17:07.366Z,994.71
2022-10-08T04:18:07.368Z,994.62
2022-10-08T04:19:07.352Z,994.64
2022-10-08T04:20:07.374Z,994.66
2022-10-08T04:21:07.338Z,994.66
2022-10-08T04:22:07.333Z,994.68
2022-10-08T04:23:07.317Z,994.76
2022-10-08T04:24:07.318Z,994.63
2022-10-08T04:25:07.314Z,994.69
2022-10-08T04:26:07.310Z,994.62
2022-10-08T04:27:07.337Z,994.60
2022-10-08T04:28:07.332Z,994.57
2022-10-08T04:29:07.278Z,994.61
2022-10-08T04:30:07.287Z,994.56
2022-10-08T04:31:07.323Z,994.55
2022-10-08T04:32:07.277Z,994.57
2022-10-08T04:33:07.258Z,994.50
2022-10-08T04:34:07.254Z,994.55
2022-10-08T04:35:07.249Z,994.51
2022-10-08T04:36:07.234Z,994.58
2022-10-08T04:37:07.242Z,994.52
2022-10-08T04:38:07.225Z,994.56
2022-10-08T04:39:07.221Z,994.51
2022-10-08T04:40:07.210Z,994.54
2022-10-08T04:41:07.206Z,994.52
2022-10-08T04:42:07.206Z,994.51
2022-10-08T04:43:07.186Z,994.60
2022-10-08T04:44:07.194Z,994.49
2022-10-08T04:45:07.174Z,994.53
2022-10-08T04:46:07.317Z,994.55
2022-10-08T04:47:07.166Z,994.56
2022-10-08T04:48:07.165Z,994.58
2022-10-08T04:49:07.150Z,994.59
2022-10-08T04:50:07.145Z,994.61
2022-10-08T04:51:10.659Z,994.58
2022-10-08T04:52:08.135Z,994.61
2022-10-08T04:53:07.138Z,994.64
2022-10-08T04:54:07.114Z,994.59
2022-10-08T04:55:07.105Z,994.57
2022-10-08T04:56:07.102Z,994.61
2022-10-08T04:57:07.089Z,994.66
2022-10-08T04:58:07.094Z,994.65
2022-10-08T04:59:07.094Z,994.66
2022-10-08T05:00:18.066Z,994.64
2022-10-08T05:01:09.078Z,994.76
2022-10-08T05:02:07.129Z,994.73
2022-10-08T05:03:07.126Z,994.71
2022-10-08T05:04:07.064Z,994.70
2022-10-08T05:05:07.041Z,994.76
2022-10-08T05:06:07.033Z,994.77
2022-10-08T05:07:07.025Z,994.82
2022-10-08T05:08:07.021Z,994.81
2022-10-08T05:09:07.021Z,994.89
2022-10-08T05:10:07.011Z,994.75
2022-10-08T05:11:07.002Z,994.89
2022-10-08T05:12:07.033Z,994.92
2022-10-08T05:13:06.990Z,994.88
2022-10-08T05:14:06.989Z,994.86
2022-10-08T05:15:06.961Z,994.90
2022-10-08T05:16:07.144Z,994.90
2022-10-08T05:17:06.953Z,994.90
2022-10-08T05:18:06.945Z,994.93
2022-10-08T05:19:06.967Z,994.93
2022-10-08T05:20:06.973Z,994.94
2022-10-08T05:21:06.917Z,994.89
2022-10-08T05:22:06.922Z,994.96
2022-10-08T05:23:06.915Z,994.94
2022-10-08T05:24:06.908Z,994.99
2022-10-08T05:25:06.898Z,994.97
2022-10-08T05:26:06.890Z,995.00
2022-10-08T05:27:06.888Z,995.01
2022-10-08T05:28:07.013Z,994.99
2022-10-08T05:29:06.901Z,994.98
2022-10-08T05:30:06.859Z,995.00
2022-10-08T05:31:06.995Z,995.02
2022-10-08T05:32:06.854Z,995.04
2022-10-08T05:33:06.842Z,995.05
2022-10-08T05:34:06.842Z,995.04
2022-10-08T05:35:06.968Z,995.02
2022-10-08T05:36:06.826Z,995.03
2022-10-08T05:37:06.821Z,995.07
2022-10-08T05:38:06.814Z,994.99
2022-10-08T05:39:06.793Z,995.03
2022-10-08T05:40:06.919Z,995.00
2022-10-08T05:41:06.785Z,994.99
2022-10-08T05:42:06.782Z,994.98
2022-10-08T05:43:06.776Z,994.93
2022-10-08T05:44:06.762Z,994.96
2022-10-08T05:45:06.795Z,995.02
2022-10-08T05:46:06.781Z,994.96
2022-10-08T05:47:06.745Z,995.07
2022-10-08T05:48:06.737Z,995.07
2022-10-08T05:49:06.719Z,995.09
2022-10-08T05:50:06.741Z,995.02
2022-10-08T05:51:06.716Z,995.06
2022-10-08T05:52:06.723Z,995.07
2022-10-08T05:53:09.258Z,995.02
2022-10-08T05:54:07.703Z,994.99
2022-10-08T05:55:06.705Z,994.98
2022-10-08T05:56:06.697Z,994.98
2022-10-08T05:57:06.690Z,994.99
2022-10-08T05:58:06.677Z,994.99
2022-10-08T05:59:06.656Z,995.03
2022-10-08T06:00:06.721Z,995.02
2022-10-08T06:01:06.693Z,995.07
2022-10-08T06:02:06.643Z,995.06
2022-10-08T06:03:06.709Z,995.04
2022-10-08T06:04:08.827Z,995.02
2022-10-08T06:05:07.714Z,995.06
2022-10-08T06:06:06.620Z,994.99
2022-10-08T06:07:06.613Z,995.03
2022-10-08T06:08:06.594Z,995.03
2022-10-08T06:09:06.597Z,995.04
2022-10-08T06:10:06.585Z,995.05
2022-10-08T06:11:06.609Z,995.07
2022-10-08T06:12:06.587Z,995.00
2022-10-08T06:13:06.571Z,995.01
2022-10-08T06:14:06.562Z,995.00
2022-10-08T06:15:06.547Z,995.00
2022-10-08T06:16:06.669Z,995.07
2022-10-08T06:17:06.546Z,995.11
2022-10-08T06:18:06.530Z,995.14
2022-10-08T06:19:06.526Z,995.12
2022-10-08T06:20:06.523Z,995.14
2022-10-08T06:21:06.529Z,995.18
2022-10-08T06:22:06.518Z,995.20
2022-10-08T06:23:06.498Z,995.16
2022-10-08T06:24:06.518Z,995.20
2022-10-08T06:25:06.483Z,995.22
2022-10-08T06:26:06.473Z,995.16
2022-10-08T06:27:06.486Z,995.16
2022-10-08T06:28:06.525Z,995.10
2022-10-08T06:29:06.463Z,995.20
2022-10-08T06:30:06.457Z,995.09
2022-10-08T06:31:06.512Z,995.07
2022-10-08T06:32:06.479Z,995.12
2022-10-08T06:33:06.446Z,995.10
2022-10-08T06:34:06.429Z,995.03
2022-10-08T06:35:06.423Z,995.12
2022-10-08T06:36:06.411Z,995.11
2022-10-08T06:37:06.409Z,995.08
2022-10-08T06:38:06.402Z,995.16
2022-10-08T06:39:06.395Z,995.14
2022-10-08T06:40:06.400Z,995.18
2022-10-08T06:41:06.382Z,995.20
2022-10-08T06:42:06.396Z,995.24
2022-10-08T06:43:06.358Z,995.30
2022-10-08T06:44:06.359Z,995.24
2022-10-08T06:45:06.363Z,995.29
2022-10-08T06:46:06.359Z,995.29
2022-10-08T06:47:06.381Z,995.32
2022-10-08T06:48:06.326Z,995.30
2022-10-08T06:49:06.377Z,995.34
2022-10-08T06:50:06.329Z,995.30
2022-10-08T06:51:06.319Z,995.36
2022-10-08T06:52:06.326Z,995.28
2022-10-08T06:53:06.304Z,995.34
2022-10-08T06:54:08.168Z,995.34
2022-10-08T06:55:07.285Z,995.29
2022-10-08T06:56:06.265Z,995.26
2022-10-08T06:57:06.277Z,995.21
2022-10-08T06:58:06.262Z,995.22
2022-10-08T06:59:06.249Z,995.16
2022-10-08T07:00:06.254Z,995.28
2022-10-08T07:01:06.291Z,995.25
2022-10-08T07:02:06.269Z,995.40
2022-10-08T07:03:06.242Z,995.41
2022-10-08T07:04:06.225Z,995.38
2022-10-08T07:05:06.215Z,995.38
2022-10-08T07:06:06.212Z,995.36
2022-10-08T07:07:06.205Z,995.39
2022-10-08T07:08:06.215Z,995.46
2022-10-08T07:09:06.191Z,995.50
2022-10-08T07:10:06.197Z,995.45
2022-10-08T07:11:06.185Z,995.44
2022-10-08T07:12:06.175Z,995.45
2022-10-08T07:13:06.177Z,995.45
2022-10-08T07:14:06.161Z,995.56
2022-10-08T07:15:06.154Z,995.53
2022-10-08T07:16:06.206Z,995.46
2022-10-08T07:17:06.138Z,995.49
2022-10-08T07:18:06.138Z,995.54
2022-10-08T07:19:06.125Z,995.56
2022-10-08T07:20:06.132Z,995.54
2022-10-08T07:21:06.121Z,995.61
2022-10-08T07:22:06.119Z,995.61
2022-10-08T07:23:06.129Z,995.62
2022-10-08T07:24:06.097Z,995.63
2022-10-08T07:25:06.109Z,995.57
2022-10-08T07:26:06.101Z,995.64
2022-10-08T07:27:06.081Z,995.62
2022-10-08T07:28:06.107Z,995.65
2022-10-08T07:29:06.099Z,995.70
2022-10-08T07:30:06.064Z,995.75
2022-10-08T07:31:06.137Z,995.74
2022-10-08T07:32:06.056Z,995.69
2022-10-08T07:33:06.040Z,995.69
2022-10-08T07:34:06.050Z,995.69
2022-10-08T07:35:06.039Z,995.67
2022-10-08T07:36:06.064Z,995.66
2022-10-08T07:37:06.022Z,995.70
2022-10-08T07:38:06.023Z,995.80
2022-10-08T07:39:06.019Z,995.72
2022-10-08T07:40:06.009Z,995.68
2022-10-08T07:41:06.002Z,995.66
2022-10-08T07:42:06.043Z,995.69
2022-10-08T07:43:05.973Z,995.69
2022-10-08T07:44:06.006Z,995.77
2022-10-08T07:45:05.968Z,995.78
2022-10-08T07:46:06.035Z,995.71
2022-10-08T07:47:05.961Z,995.76
2022-10-08T07:48:05.951Z,995.72
2022-10-08T07:49:05.961Z,995.80
2022-10-08T07:50:05.926Z,995.82
2022-10-08T07:51:05.938Z,995.72
2022-10-08T07:52:05.929Z,995.72
2022-10-08T07:53:05.928Z,995.74
2022-10-08T07:54:05.914Z,995.82
2022-10-08T07:55:05.939Z,995.85
2022-10-08T07:56:05.905Z,995.83
2022-10-08T07:57:05.898Z,995.87
2022-10-08T07:58:05.894Z,995.91
2022-10-08T07:59:05.877Z,995.92
2022-10-08T08:00:05.886Z,995.88
2022-10-08T08:01:05.966Z,995.87
2022-10-08T08:02:05.940Z,995.96
2022-10-08T08:03:05.863Z,995.91
2022-10-08T08:04:05.858Z,995.94
2022-10-08T08:05:05.869Z,995.95
2022-10-08T08:06:05.854Z,995.99
2022-10-08T08:07:05.832Z,995.98
2022-10-08T08:08:05.834Z,996.03
2022-10-08T08:09:05.826Z,995.99
2022-10-08T08:10:05.811Z,995.97
2022-10-08T08:11:05.830Z,996.01
2022-10-08T08:12:05.839Z,996.00
2022-10-08T08:13:05.798Z,996.11
2022-10-08T08:14:05.785Z,996.14
2022-10-08T08:15:06.705Z,996.14
2022-10-08T08:16:05.852Z,996.22
2022-10-08T08:17:05.771Z,996.22
2022-10-08T08:18:05.779Z,996.27
2022-10-08T08:19:05.758Z,996.23
2022-10-08T08:20:05.758Z,996.23
2022-10-08T08:21:05.750Z,996.26
2022-10-08T08:22:05.750Z,996.27
2022-10-08T08:23:05.730Z,996.28
2022-10-08T08:24:05.732Z,996.26
2022-10-08T08:25:05.726Z,996.29
2022-10-08T08:26:05.718Z,996.36
2022-10-08T08:27:05.718Z,996.33
2022-10-08T08:28:05.771Z,996.35
2022-10-08T08:29:05.697Z,996.35
2022-10-08T08:30:05.689Z,996.34
2022-10-08T08:31:05.681Z,996.33
2022-10-08T08:32:05.727Z,996.40
2022-10-08T08:33:05.674Z,996.41
2022-10-08T08:34:05.682Z,996.42
2022-10-08T08:35:05.642Z,996.41
2022-10-08T08:36:06.653Z,996.40
2022-10-08T08:37:05.681Z,996.47
2022-10-08T08:38:05.643Z,996.54
2022-10-08T08:39:05.654Z,996.48
2022-10-08T08:40:05.631Z,996.51
2022-10-08T08:41:10.446Z,996.52
2022-10-08T08:42:07.638Z,996.55
2022-10-08T08:43:05.607Z,996.55
2022-10-08T08:44:05.602Z,996.55
2022-10-08T08:45:05.597Z,996.54
2022-10-08T08:46:05.610Z,996.55
2022-10-08T08:47:05.603Z,996.50
2022-10-08T08:48:05.579Z,996.45
2022-10-08T08:49:05.569Z,996.43
2022-10-08T08:50:05.567Z,996.36
2022-10-08T08:51:05.558Z,996.48
2022-10-08T08:52:05.561Z,996.47
2022-10-08T08:53:05.544Z,996.51
2022-10-08T08:54:05.537Z,996.53
2022-10-08T08:55:05.538Z,996.57
2022-10-08T08:56:05.521Z,996.60
2022-10-08T08:57:05.530Z,996.56
2022-10-08T08:58:10.016Z,996.61
2022-10-08T08:59:06.511Z,996.67
2022-10-08T09:00:05.501Z,996.64
2022-10-08T09:01:05.584Z,996.63
2022-10-08T09:02:05.528Z,996.61
2022-10-08T09:03:05.507Z,996.64
2022-10-08T09:04:05.481Z,996.68
2022-10-08T09:05:05.500Z,996.62
2022-10-08T09:06:05.478Z,996.69
2022-10-08T09:07:05.458Z,996.69
2022-10-08T09:08:06.471Z,996.78
2022-10-08T09:09:05.458Z,996.79
2022-10-08T09:10:05.459Z,996.79
2022-10-08T09:11:05.446Z,996.83
2022-10-08T09:12:05.442Z,996.84
2022-10-08T09:13:05.437Z,996.86
2022-10-08T09:14:05.431Z,996.87
2022-10-08T09:15:05.424Z,996.92
2022-10-08T09:16:05.419Z,996.93
2022-10-08T09:17:05.477Z,996.90
2022-10-08T09:18:05.408Z,996.93
2022-10-08T09:19:05.462Z,996.99
2022-10-08T09:20:05.386Z,996.89
2022-10-08T09:21:05.415Z,996.96
2022-10-08T09:22:05.376Z,996.95
2022-10-08T09:23:05.371Z,997.00
2022-10-08T09:24:05.370Z,996.96
2022-10-08T09:25:05.378Z,996.97
2022-10-08T09:26:05.368Z,996.99
2022-10-08T09:27:05.358Z,996.99
2022-10-08T09:28:05.420Z,996.97
2022-10-08T09:29:05.367Z,997.02
2022-10-08T09:30:05.333Z,997.00
2022-10-08T09:31:09.066Z,996.99
2022-10-08T09:32:06.346Z,997.07
2022-10-08T09:33:05.311Z,997.06
2022-10-08T09:34:05.320Z,997.08
2022-10-08T09:35:05.304Z,997.08
2022-10-08T09:36:05.295Z,997.05
2022-10-08T09:37:05.287Z,997.09
2022-10-08T09:38:06.256Z,997.14
2022-10-08T09:39:06.270Z,997.12
2022-10-08T09:40:05.284Z,997.12
2022-10-08T09:41:05.261Z,997.17
2022-10-08T09:42:05.305Z,997.18
2022-10-08T09:43:05.249Z,997.18
2022-10-08T09:44:05.237Z,997.13
2022-10-08T09:45:05.244Z,997.21
2022-10-08T09:46:05.310Z,997.23
2022-10-08T09:47:05.237Z,997.31
2022-10-08T09:48:05.237Z,997.32
2022-10-08T09:49:05.226Z,997.34
2022-10-08T09:50:05.203Z,997.34
2022-10-08T09:51:05.199Z,997.33
2022-10-08T09:52:05.201Z,997.28
2022-10-08T09:53:05.211Z,997.27
2022-10-08T09:54:05.179Z,997.38
2022-10-08T09:55:05.170Z,997.37
2022-10-08T09:56:05.162Z,997.35
2022-10-08T09:57:05.157Z,997.28
2022-10-08T09:58:05.149Z,997.35
2022-10-08T09:59:05.151Z,997.36
2022-10-08T10:00:05.139Z,997.35
2022-10-08T10:01:05.179Z,997.31
2022-10-08T10:02:05.141Z,997.34
2022-10-08T10:03:05.141Z,997.28
2022-10-08T10:04:05.154Z,997.36
2022-10-08T10:05:05.114Z,997.35
2022-10-08T10:06:05.101Z,997.31
2022-10-08T10:07:05.111Z,997.38
2022-10-08T10:08:05.095Z,997.40
2022-10-08T10:09:05.080Z,997.41
2022-10-08T10:10:05.771Z,997.38
2022-10-08T10:11:05.121Z,997.44
2022-10-08T10:12:05.145Z,997.47
2022-10-08T10:13:05.056Z,997.46
2022-10-08T10:14:05.056Z,997.44
2022-10-08T10:15:05.121Z,997.50
2022-10-08T10:16:05.064Z,997.51
2022-10-08T10:17:05.147Z,997.49
2022-10-08T10:18:05.148Z,997.55
2022-10-08T10:19:05.061Z,997.50
2022-10-08T10:20:05.046Z,997.48
2022-10-08T10:21:05.106Z,997.52
2022-10-08T10:22:05.037Z,997.48
2022-10-08T10:23:05.638Z,997.49
2022-10-08T10:24:04.988Z,997.54
2022-10-08T10:25:05.032Z,997.54
2022-10-08T10:26:06.772Z,997.53
2022-10-08T10:27:06.037Z,997.51
2022-10-08T10:28:05.020Z,997.56
2022-10-08T10:29:05.018Z,997.56
2022-10-08T10:30:04.952Z,997.57
2022-10-08T10:31:04.999Z,997.58
2022-10-08T10:32:04.944Z,997.54
2022-10-08T10:33:04.952Z,997.54
2022-10-08T10:34:04.948Z,997.57
2022-10-08T10:35:04.934Z,997.55
2022-10-08T10:36:04.920Z,997.56
2022-10-08T10:37:04.924Z,997.53
2022-10-08T10:38:04.939Z,997.55
2022-10-08T10:39:04.897Z,997.53
2022-10-08T10:40:04.884Z,997.55
2022-10-08T10:41:04.882Z,997.58
2022-10-08T10:42:04.877Z,997.55
2022-10-08T10:43:04.873Z,997.61
2022-10-08T10:44:04.876Z,997.47
2022-10-08T10:45:04.892Z,997.51
2022-10-08T10:46:04.911Z,997.54
2022-10-08T10:47:04.843Z,997.55
2022-10-08T10:48:04.828Z,997.53
2022-10-08T10:49:04.870Z,997.54
2022-10-08T10:50:04.836Z,997.54
2022-10-08T10:51:04.814Z,997.59
2022-10-08T10:52:04.811Z,997.39
2022-10-08T10:53:04.799Z,997.54
2022-10-08T10:54:04.786Z,997.42
2022-10-08T10:55:04.804Z,997.42
2022-10-08T10:56:04.784Z,997.49
2022-10-08T10:57:04.763Z,997.43
2022-10-08T10:58:04.769Z,997.44
2022-10-08T10:59:04.780Z,997.47
2022-10-08T11:00:04.800Z,997.48
2022-10-08T11:01:04.800Z,997.63
2022-10-08T11:02:04.740Z,997.71
2022-10-08T11:03:04.807Z,997.63
2022-10-08T11:04:04.731Z,997.69
2022-10-08T11:05:04.734Z,997.64
2022-10-08T11:06:04.711Z,997.62
2022-10-08T11:07:04.707Z,997.60
2022-10-08T11:08:04.695Z,997.62
2022-10-08T11:09:04.699Z,997.57
2022-10-08T11:10:04.762Z,997.70
2022-10-08T11:11:04.688Z,997.54
2022-10-08T11:12:04.687Z,997.42
2022-10-08T11:13:04.660Z,997.47
2022-10-08T11:14:04.657Z,997.54
2022-10-08T11:15:04.650Z,997.41
2022-10-08T11:16:04.651Z,997.43
2022-10-08T11:17:04.648Z,997.44
2022-10-08T11:18:04.643Z,997.26
2022-10-08T11:19:04.642Z,997.16
2022-10-08T11:20:04.696Z,996.97
2022-10-08T11:21:04.614Z,997.08
2022-10-08T11:22:04.624Z,996.98
2022-10-08T11:23:04.601Z,996.94
2022-10-08T11:24:04.594Z,996.89
2022-10-08T11:25:04.652Z,996.84
2022-10-08T11:26:21.820Z,997.00
2022-10-08T11:27:06.604Z,997.16
2022-10-08T11:28:04.633Z,997.19
2022-10-08T11:29:04.563Z,997.26
2022-10-08T11:30:04.651Z,997.22
2022-10-08T11:31:04.615Z,997.18
2022-10-08T11:32:04.552Z,997.20
2022-10-08T11:33:04.555Z,997.17
2022-10-08T11:34:04.555Z,997.15
2022-10-08T11:35:04.542Z,997.12
2022-10-08T11:36:04.616Z,997.21
2022-10-08T11:37:05.183Z,997.09
2022-10-08T11:38:04.547Z,997.12
2022-10-08T11:39:04.545Z,997.15
2022-10-08T11:40:04.525Z,997.10
2022-10-08T11:41:04.520Z,997.03
2022-10-08T11:42:04.507Z,997.06
2022-10-08T11:43:04.537Z,997.11
2022-10-08T11:44:04.518Z,997.00
2022-10-08T11:45:04.487Z,996.90
2022-10-08T11:46:04.539Z,996.72
2022-10-08T11:47:04.487Z,996.82
2022-10-08T11:48:09.714Z,996.85
2022-10-08T11:49:04.459Z,997.06
2022-10-08T11:50:04.467Z,997.06
2022-10-08T11:51:04.451Z,997.04
2022-10-08T11:52:04.484Z,996.65
2022-10-08T11:53:04.443Z,996.53
2022-10-08T11:54:04.435Z,996.60
2022-10-08T11:55:04.423Z,996.55
2022-10-08T11:56:04.408Z,996.56
2022-10-08T11:57:04.403Z,996.59
2022-10-08T11:58:08.791Z,996.67
2022-10-08T11:59:05.430Z,996.71
2022-10-08T12:00:08.309Z,996.80
2022-10-08T12:01:05.386Z,996.83
2022-10-08T12:02:04.448Z,996.88
2022-10-08T12:03:04.502Z,996.92
2022-10-08T12:04:04.376Z,996.99
2022-10-08T12:05:04.388Z,996.97
2022-10-08T12:06:04.349Z,997.03
2022-10-08T12:07:04.331Z,996.98
2022-10-08T12:08:04.353Z,996.91
2022-10-08T12:09:04.354Z,996.98
2022-10-08T12:10:04.347Z,997.01
2022-10-08T12:11:04.317Z,996.94
2022-10-08T12:12:04.309Z,997.06
2022-10-08T12:13:05.309Z,997.08
2022-10-08T12:14:04.322Z,997.04
2022-10-08T12:15:04.310Z,997.14
2022-10-08T12:16:04.335Z,997.02
2022-10-08T12:17:04.285Z,996.95
2022-10-08T12:18:04.290Z,996.91
2022-10-08T12:19:04.276Z,996.96
2022-10-08T12:20:04.638Z,997.14
2022-10-08T12:21:04.246Z,996.96
2022-10-08T12:22:04.238Z,997.21
2022-10-08T12:23:04.232Z,997.17
2022-10-08T12:24:04.281Z,997.16
2022-10-08T12:25:04.250Z,997.18
2022-10-08T12:26:04.209Z,996.98
2022-10-08T12:27:04.198Z,997.10
2022-10-08T12:28:04.278Z,997.08